Details From YBCS - Cairns Intl
To YPGV - Gove
Flight Number -
Tags generated
Created
Modified
Stats Distance 589 nm / 1,091 km
Max Altitude 34,000 ft / 10,363 m
Waypoints 6
Social Downloads 1
Likes 0
Share VATSIM

Download

Looking for another format? Having issues loading an existing format? Contact us
Advertisement - Login to hide

Notes

Basic altitude profile: - Ascent Rate: 1800ft/min - Ascent Speed: 250kts - Cruise Altitude: 320ft - Cruise Speed: 420kts - Descent Rate: 1800ft/min - Descent Speed: 250kts Options: - Use NATs: no - Use PACOTS: no - Use low airways: no - Use high airways: yes

Route

YBCS CARBA J151 GV YPGV

ID Type Via Altitude Latitude Longitude Leg Dist Tot Dist Heading (true) Name
O YBCS APT - 0 ft / 0 m -16.88108˚ 145.75260˚ - 0 nm - Cairns Intl
CARBA FIX - 18,300 ft / 5,578 m -16.47417˚ 144.96861˚ 51 nm 51 nm 298° / 299° -
KOOKA FIX J151 (AWY-HI) 34,000 ft / 10,363 m -15.71389˚ 143.42611˚ 100 nm 151 nm 297° / 297° -
PILLO FIX J151 (AWY-HI) 32,200 ft / 9,815 m -13.46972˚ 139.06111˚ 287 nm 438 nm 297° / 299° -
GV VOR J151 (AWY-HI) 18,000 ft / 5,486 m -12.26500˚ 136.81611˚ 150 nm 588 nm 299° / 299° GOVE VOR-DME
O YPGV APT - 0 ft / 0 m -12.26922˚ 136.81757˚ 0 nm 588 nm 161° / 161° Gove

Altitude Profile

Advertisement - Login to hide

Weather


0- 5 10 15 20 25 30 35+ Temperature / ° C

Clouds and Precipitation
Forecast for 2017-12-15 06:00 UTC. Updated 2 hours ago

Ground ~20,000 ft ~40,000 ft Winds

YBCS

Details ICAO YBCS (CNS)
Name Cairns Intl
Region Australia
Timezone Australia/Brisbane (UTC+10.0)
Stats Elevation 10 ft / 3 m (AMSL)
Location -16.881079° 145.752598°
Runways 2
Magnetic Variation 6.715° E

METAR

YBCS 150300Z 05011KT 9999 FEW030 BKN300 32/21 Q1008 NOSIG

Decode

TAF

TAF YBCS 142310Z 1500/1524 13010KT 9999 FEW030 FM150100 06010KT 9999 FEW030 FM150800 14008KT 9999 FEW025

Decode

Departure Runways

ID Width Length Bearing (true) Bearing (mag) Surface Threshold Offset Overrun Length
12 62 ft / 19 m 3,045 ft / 928 m 125.77° 119.06° Asphalt 0 ft / 0 m 0 ft / 0 m
15 148 ft / 45 m 10,522 ft / 3,207 m 156.60° 149.89° Asphalt 0 ft / 0 m 328 ft / 100 m
30 62 ft / 19 m 3,045 ft / 928 m 305.77° 299.06° Asphalt 0 ft / 0 m 0 ft / 0 m
33 148 ft / 45 m 10,522 ft / 3,207 m 336.60° 329.89° Asphalt 0 ft / 0 m 0 ft / 0 m

YPGV

Details ICAO YPGV (GOV)
Name Gove
Region Australia
Timezone Australia/Darwin (UTC+9.5)
Stats Elevation 179 ft / 55 m (AMSL)
Location -12.269216° 136.817569°
Runways 1
Magnetic Variation 3.866° E

METAR

YPGV 150300Z AUTO 01011KT 9999 // NCD 33/22 Q1007

Decode

TAF

TAF YPGV 141904Z 1420/1508 33003KT CAVOK FM150000 01010KT 9999 FEW030

Decode

Destination Runways

ID Width Length Bearing (true) Bearing (mag) Surface Threshold Offset Overrun Length
13 148 ft / 45 m 7,254 ft / 2,211 m 130.10° 126.23° Asphalt 0 ft / 0 m 180 ft / 55 m
31 148 ft / 45 m 7,254 ft / 2,211 m 310.10° 306.23° Asphalt 0 ft / 0 m 554 ft / 169 m

Popular Alternatives